Time;durP1;ratioP1;P1;durP2;ratioP2;P2;SDS_P1;SDS_P2;PMS_P1;PMS_P2;Temp;Humidity;BMP_temperature;BMP_pressure;BME280_temperature;BME280_humidity;BME280_pressure;Samples;Min_cycle;Max_cycle;Signal;HPM_P1;HPM_P2
2023/12/12 04:01:49;;;;;;;12.88;4.80;;;4.30;99.90;;;;;;5368099;23;20468;-76
2023/12/12 04:04:17;;;;;;;17.13;5.43;;;4.20;99.90;;;;;;4994486;28;20113;-76
2023/12/12 04:06:47;;;;;;;17.85;6.80;;;4.30;99.90;;;;;;4994157;28;20042;-77
2023/12/12 04:09:13;;;;;;;23.90;7.35;;;4.40;99.90;;;;;;4994496;28;20084;-76
2023/12/12 04:11:39;;;;;;;19.67;7.75;;;4.40;99.90;;;;;;4994077;28;20441;-77
2023/12/12 04:14:04;;;;;;;19.95;8.32;;;4.50;99.90;;;;;;4993105;28;20096;-76
2023/12/12 04:16:30;;;;;;;23.88;7.57;;;4.40;99.90;;;;;;4993440;28;20077;-77
2023/12/12 04:18:56;;;;;;;19.45;6.68;;;4.50;99.90;;;;;;4992868;28;20560;-76
2023/12/12 04:21:21;;;;;;;24.88;8.35;;;4.50;99.90;;;;;;4992669;28;20119;-76
2023/12/12 04:23:47;;;;;;;24.35;7.13;;;4.50;99.90;;;;;;4976626;28;20034;-76
2023/12/12 04:26:12;;;;;;;23.85;7.43;;;4.50;99.90;;;;;;4992667;28;20119;-77
2023/12/12 04:28:38;;;;;;;28.17;7.78;;;4.50;99.90;;;;;;4994221;28;20433;-76
2023/12/12 04:31:05;;;;;;;29.85;8.70;;;4.50;99.90;;;;;;4992806;28;20041;-76
2023/12/12 04:33:30;;;;;;;18.40;5.78;;;4.40;99.90;;;;;;4992934;28;20050;-76
2023/12/12 04:35:56;;;;;;;19.67;4.97;;;4.40;99.90;;;;;;4992842;28;20445;-76
2023/12/12 04:38:21;;;;;;;17.08;5.32;;;4.30;99.90;;;;;;4992563;28;20053;-78
2023/12/12 04:40:47;;;;;;;15.15;5.10;;;4.20;99.90;;;;;;4992810;28;20043;-75
2023/12/12 04:43:13;;;;;;;19.75;6.72;;;4.20;99.90;;;;;;4976382;28;20188;-77
2023/12/12 04:45:39;;;;;;;17.38;6.88;;;4.20;99.90;;;;;;4993964;28;20046;-77
2023/12/12 04:48:05;;;;;;;15.82;6.55;;;4.20;99.90;;;;;;4997094;28;20097;-76
2023/12/12 04:50:31;;;;;;;20.33;6.85;;;4.20;99.90;;;;;;4996402;28;20045;-77
2023/12/12 04:52:56;;;;;;;23.40;8.70;;;4.20;99.90;;;;;;4997924;28;20043;-79
2023/12/12 04:55:22;;;;;;;27.88;9.05;;;4.30;99.90;;;;;;4997822;28;20046;-75
2023/12/12 04:57:47;;;;;;;34.60;9.77;;;4.30;99.90;;;;;;4996253;28;20104;-76
2023/12/12 05:00:14;;;;;;;28.83;9.00;;;4.40;99.90;;;;;;4996320;28;20462;-80
2023/12/12 05:02:41;;;;;;;29.77;10.27;;;4.50;99.90;;;;;;4997618;28;20121;-75
2023/12/12 05:05:07;;;;;;;32.72;10.27;;;4.50;99.90;;;;;;4997356;28;20477;-75
2023/12/12 05:07:33;;;;;;;36.55;10.40;;;4.60;99.90;;;;;;4996401;28;20402;-76
2023/12/12 05:09:58;;;;;;;38.33;9.25;;;4.60;99.90;;;;;;4997476;28;20045;-76
2023/12/12 05:12:25;;;;;;;39.17;9.68;;;4.70;99.90;;;;;;4997485;28;20046;-76
2023/12/12 05:14:50;;;;;;;32.97;9.10;;;4.60;99.90;;;;;;4996218;28;20470;-76
2023/12/12 05:17:16;;;;;;;26.90;8.45;;;4.60;99.90;;;;;;4997398;28;20070;-75
2023/12/12 05:19:42;;;;;;;66.13;12.60;;;4.60;99.90;;;;;;4997461;28;20112;-75
2023/12/12 05:22:08;;;;;;;102.05;13.38;;;4.60;99.90;;;;;;4995818;28;20077;-79
2023/12/12 05:24:33;;;;;;;97.45;13.75;;;4.60;99.90;;;;;;4997397;28;20042;-76
2023/12/12 05:26:59;;;;;;;206.70;18.70;;;4.70;99.90;;;;;;4979475;28;20473;-80
2023/12/12 05:29:25;;;;;;;106.38;14.23;;;4.80;99.90;;;;;;4995748;28;20134;-76
2023/12/12 05:31:50;;;;;;;111.03;14.77;;;4.80;99.90;;;;;;4995601;28;20133;-76
2023/12/12 05:34:16;;;;;;;60.53;13.57;;;4.80;99.90;;;;;;4995674;28;20034;-75
2023/12/12 05:36:42;;;;;;;58.13;13.95;;;4.80;99.90;;;;;;4996929;28;20038;-75
2023/12/12 05:39:09;;;;;;;71.45;13.88;;;4.90;99.90;;;;;;4995572;28;20039;-75
2023/12/12 05:41:35;;;;;;;98.32;15.52;;;4.90;99.90;;;;;;4996092;28;20045;-75
2023/12/12 05:44:01;;;;;;;127.75;17.27;;;5.00;99.90;;;;;;4995498;28;20046;-76
2023/12/12 05:46:27;;;;;;;143.40;18.08;;;5.00;99.90;;;;;;4995382;28;20042;-76
2023/12/12 05:48:52;;;;;;;265.25;24.80;;;5.20;99.90;;;;;;4996645;28;20074;-75
2023/12/12 05:51:18;;;;;;;88.63;17.02;;;5.20;99.90;;;;;;4996790;28;20046;-77
2023/12/12 05:53:44;;;;;;;152.48;19.83;;;5.30;99.90;;;;;;4995620;28;20092;-75
2023/12/12 05:56:12;;;;;;;236.68;23.25;;;5.30;99.90;;;;;;4996490;28;20482;-75
2023/12/12 05:58:39;;;;;;;195.73;21.45;;;5.40;99.90;;;;;;4995041;28;20038;-76
2023/12/12 06:01:05;;;;;;;210.98;22.85;;;5.40;99.90;;;;;;4994950;28;20637;-76
2023/12/12 06:03:31;;;;;;;204.23;22.55;;;5.50;99.90;;;;;;4996704;28;20129;-78
2023/12/12 06:05:57;;;;;;;212.27;23.33;;;5.50;99.90;;;;;;4995214;28;20042;-76
2023/12/12 06:08:23;;;;;;;179.60;22.30;;;5.50;99.90;;;;;;4996349;28;20047;-76
2023/12/12 06:10:48;;;;;;;183.73;22.83;;;5.60;99.90;;;;;;4996440;28;20124;-76
2023/12/12 06:13:15;;;;;;;245.73;25.83;;;5.60;99.90;;;;;;4995256;28;20125;-77
2023/12/12 06:15:41;;;;;;;156.07;22.27;;;5.70;99.90;;;;;;4994948;28;20085;-75
2023/12/12 06:18:07;;;;;;;203.15;27.30;;;5.70;99.90;;;;;;4996091;28;20074;-76
2023/12/12 06:20:33;;;;;;;223.40;27.13;;;5.80;99.90;;;;;;4994996;28;20050;-76
2023/12/12 06:22:59;;;;;;;158.10;22.20;;;5.90;99.90;;;;;;4994755;28;20042;-76
2023/12/12 06:25:25;;;;;;;267.60;29.83;;;5.80;99.90;;;;;;4996111;28;20092;-75
2023/12/12 06:27:50;;;;;;;246.05;28.63;;;5.90;99.90;;;;;;4995864;28;20035;-76
2023/12/12 06:30:16;;;;;;;287.63;31.20;;;5.90;99.90;;;;;;4994561;28;20046;-76
2023/12/12 06:32:42;;;;;;;132.65;22.48;;;5.90;99.90;;;;;;4996157;28;20484;-75
2023/12/12 06:35:07;;;;;;;187.00;26.85;;;5.90;99.90;;;;;;4994533;28;20050;-75
2023/12/12 06:37:33;;;;;;;204.35;26.95;;;6.00;99.90;;;;;;4994424;28;20042;-76
2023/12/12 06:40:00;;;;;;;151.52;23.40;;;5.90;99.90;;;;;;4994748;28;20046;-76
2023/12/12 06:42:25;;;;;;;169.32;27.25;;;5.90;99.90;;;;;;4995793;28;20053;-75
2023/12/12 06:44:51;;;;;;;108.07;22.70;;;5.90;99.90;;;;;;4995424;28;20042;-76
2023/12/12 06:47:17;;;;;;;128.55;25.02;;;5.90;99.90;;;;;;4994216;28;20109;-75
2023/12/12 06:49:42;;;;;;;109.60;23.85;;;5.90;99.90;;;;;;4996233;28;20042;-76
2023/12/12 06:52:08;;;;;;;141.75;25.00;;;5.90;99.90;;;;;;4994167;28;20038;-76
2023/12/12 06:54:34;;;;;;;125.63;25.52;;;5.90;99.90;;;;;;4995586;28;20038;-76
2023/12/12 06:56:59;;;;;;;164.68;28.05;;;5.90;99.90;;;;;;4994369;28;20429;-77
2023/12/12 06:59:25;;;;;;;122.13;26.80;;;5.80;99.90;;;;;;4995484;28;20096;-77
2023/12/12 07:01:51;;;;;;;147.60;28.65;;;5.80;99.90;;;;;;4995184;28;20042;-77
2023/12/12 07:04:16;;;;;;;174.40;29.40;;;5.80;99.90;;;;;;4995782;28;20431;-75
2023/12/12 07:06:42;;;;;;;199.60;32.67;;;5.80;99.90;;;;;;4993994;28;20125;-76
2023/12/12 07:09:12;;;;;;;236.57;32.17;;;5.80;99.90;;;;;;4994738;28;20081;-76
2023/12/12 07:11:38;;;;;;;231.15;33.03;;;5.80;99.90;;;;;;4995251;28;20046;-75
2023/12/12 07:14:04;;;;;;;204.73;32.38;;;5.80;99.90;;;;;;4993823;28;20046;-76
2023/12/12 07:16:30;;;;;;;156.32;29.02;;;5.80;99.90;;;;;;4993711;28;20048;-77
2023/12/12 07:18:58;;;;;;;96.57;25.02;;;5.70;99.90;;;;;;4977507;28;20129;-75
2023/12/12 07:21:23;;;;;;;118.68;26.85;;;5.70;99.90;;;;;;4994661;28;20042;-75
2023/12/12 07:23:51;;;;;;;116.72;26.35;;;5.70;99.90;;;;;;4995520;28;20168;-75
2023/12/12 07:26:18;;;;;;;106.88;28.92;;;5.70;99.90;;;;;;4995393;28;20043;-75
2023/12/12 07:28:43;;;;;;;90.93;26.98;;;5.60;99.90;;;;;;4994198;28;20081;-76
2023/12/12 07:31:10;;;;;;;91.03;26.95;;;5.60;99.90;;;;;;4993798;28;20074;-76
2023/12/12 07:33:36;;;;;;;79.55;26.90;;;5.70;99.90;;;;;;4993669;28;20488;-76
2023/12/12 07:36:02;;;;;;;83.68;27.85;;;5.70;99.90;;;;;;4992990;28;20080;-75
2023/12/12 07:38:28;;;;;;;80.05;26.83;;;5.70;99.90;;;;;;4994828;28;20077;-77
2023/12/12 07:40:53;;;;;;;79.85;27.38;;;5.70;99.90;;;;;;4993532;28;20398;-76
2023/12/12 07:43:19;;;;;;;88.45;29.35;;;5.60;99.90;;;;;;4993227;28;20042;-77
2023/12/12 07:45:45;;;;;;;79.90;28.23;;;5.60;99.90;;;;;;4994602;28;20042;-76
2023/12/12 07:48:10;;;;;;;83.70;29.00;;;5.60;99.90;;;;;;4994589;28;20039;-75
2023/12/12 07:50:36;;;;;;;72.88;27.52;;;5.60;99.90;;;;;;4993156;28;20076;-75
2023/12/12 07:53:04;;;;;;;85.65;29.13;;;5.60;99.90;;;;;;4994625;28;20034;-76
2023/12/12 07:55:31;;;;;;;79.38;26.90;;;5.60;99.90;;;;;;4993064;28;20046;-75
2023/12/12 07:57:57;;;;;;;89.82;30.15;;;5.50;99.90;;;;;;4994838;28;20385;-76
2023/12/12 08:00:22;;;;;;;93.80;29.40;;;5.50;99.90;;;;;;4994327;28;20030;-77
2023/12/12 08:02:48;;;;;;;88.53;29.45;;;5.50;99.90;;;;;;4994655;28;20039;-76
2023/12/12 08:05:20;;;;;;;82.95;29.02;;;5.50;99.90;;;;;;4994647;28;20042;-80
2023/12/12 08:07:46;;;;;;;90.82;30.80;;;5.40;99.90;;;;;;4993932;28;20049;-76
2023/12/12 08:10:11;;;;;;;87.82;28.15;;;5.40;99.90;;;;;;4994483;28;20477;-77
2023/12/12 08:12:37;;;;;;;92.45;28.48;;;5.40;99.90;;;;;;4992775;28;20403;-75
2023/12/12 08:15:04;;;;;;;109.82;30.42;;;5.40;99.90;;;;;;4994392;28;20038;-76
2023/12/12 08:17:29;;;;;;;128.23;31.90;;;5.30;99.90;;;;;;4993034;28;20157;-76
2023/12/12 08:19:55;;;;;;;166.68;35.92;;;5.30;99.90;;;;;;4992981;28;20509;-75
2023/12/12 08:22:21;;;;;;;166.65;34.35;;;5.20;99.90;;;;;;4992822;28;20128;-75
2023/12/12 08:24:50;;;;;;;461.83;47.63;;;5.20;99.90;;;;;;4994046;28;20500;-76
2023/12/12 08:27:17;;;;;;;558.03;48.47;;;5.10;99.90;;;;;;4994247;28;20034;-75
2023/12/12 08:29:45;;;;;;;540.40;45.05;;;5.00;99.90;;;;;;4994161;28;20049;-76
2023/12/12 08:32:11;;;;;;;416.45;38.42;;;4.90;99.90;;;;;;4994059;28;20060;-74
2023/12/12 08:34:36;;;;;;;414.52;40.33;;;4.90;99.90;;;;;;4992633;28;20042;-75
2023/12/12 08:37:03;;;;;;;450.58;42.75;;;4.80;99.90;;;;;;4992886;28;20050;-76
2023/12/12 08:39:31;;;;;;;266.38;29.63;;;4.80;99.90;;;;;;4992490;28;20046;-75
2023/12/12 08:41:57;;;;;;;413.80;39.40;;;4.80;99.90;;;;;;4992702;28;20050;-75
2023/12/12 08:44:23;;;;;;;221.23;30.10;;;4.70;99.90;;;;;;4992529;28;20042;-74
2023/12/12 08:46:50;;;;;;;262.77;34.67;;;4.70;99.90;;;;;;4993657;28;20042;-76
2023/12/12 08:49:18;;;;;;;214.95;34.33;;;4.70;99.90;;;;;;4993985;28;20046;-75
2023/12/12 08:51:44;;;;;;;138.02;29.90;;;4.70;99.90;;;;;;4993853;28;20093;-75
2023/12/12 08:54:10;;;;;;;128.55;30.10;;;4.80;99.90;;;;;;4992356;28;20450;-75
2023/12/12 08:56:38;;;;;;;114.95;30.35;;;4.80;99.90;;;;;;4993624;28;20121;-75
2023/12/12 08:59:04;;;;;;;103.22;29.13;;;4.80;99.90;;;;;;4992547;28;20429;-75
2023/12/12 09:01:30;;;;;;;96.03;30.30;;;4.80;99.90;;;;;;4993414;28;20039;-74
2023/12/12 09:03:56;;;;;;;113.90;30.58;;;4.90;99.90;;;;;;4992896;28;20034;-76
2023/12/12 09:06:22;;;;;;;114.93;31.00;;;4.90;99.90;;;;;;4992863;28;20046;-74
2023/12/12 09:08:48;;;;;;;118.32;31.05;;;4.90;99.90;;;;;;4993842;28;20497;-74
2023/12/12 09:11:13;;;;;;;166.93;36.90;;;4.90;99.90;;;;;;4993756;28;20030;-75
2023/12/12 09:13:41;;;;;;;206.90;35.85;;;4.90;99.90;;;;;;4992101;28;20390;-75
2023/12/12 09:16:07;;;;;;;241.73;38.75;;;4.90;99.90;;;;;;4993502;28;20042;-75
2023/12/12 09:18:33;;;;;;;240.35;36.53;;;4.90;99.90;;;;;;4992255;28;20038;-75
2023/12/12 09:20:58;;;;;;;255.27;37.15;;;4.90;99.90;;;;;;4993627;28;20170;-75
2023/12/12 09:23:27;;;;;;;229.35;34.92;;;4.90;99.90;;;;;;4992191;28;20059;-74
2023/12/12 09:25:54;;;;;;;229.55;33.65;;;4.90;99.90;;;;;;4992175;28;20047;-75
2023/12/12 09:28:21;;;;;;;202.00;33.28;;;4.90;99.90;;;;;;4992116;28;20512;-75
2023/12/12 09:30:47;;;;;;;214.30;35.53;;;4.90;99.90;;;;;;4992231;28;20454;-75
2023/12/12 09:33:12;;;;;;;166.60;33.78;;;4.90;99.90;;;;;;4995031;28;20042;-74
2023/12/12 09:35:38;;;;;;;121.03;30.48;;;5.00;99.90;;;;;;4995918;28;20064;-75
2023/12/12 09:38:03;;;;;;;106.43;29.27;;;5.00;99.90;;;;;;4995742;28;20046;-76
2023/12/12 09:40:30;;;;;;;94.43;28.50;;;5.00;99.90;;;;;;4995521;28;20049;-75
2023/12/12 09:42:57;;;;;;;99.80;29.48;;;5.00;99.90;;;;;;4995602;28;20054;-75
2023/12/12 09:45:25;;;;;;;88.32;28.95;;;5.00;99.90;;;;;;4995576;28;20042;-75
2023/12/12 09:47:51;;;;;;;111.78;30.20;;;5.10;99.90;;;;;;4995734;28;20393;-75
2023/12/12 09:50:17;;;;;;;141.30;33.25;;;5.10;99.90;;;;;;4995528;28;20042;-75
2023/12/12 09:52:46;;;;;;;137.73;33.05;;;5.20;99.90;;;;;;4995376;28;20540;-74
2023/12/12 09:55:13;;;;;;;106.93;31.55;;;5.20;99.90;;;;;;4995536;28;20401;-75
2023/12/12 09:57:38;;;;;;;92.97;32.15;;;5.30;99.90;;;;;;4995538;28;20456;-74
2023/12/12 10:00:08;;;;;;;93.80;33.03;;;5.40;99.90;;;;;;4996447;28;20118;-75
2023/12/12 10:02:36;;;;;;;97.13;32.30;;;5.50;99.90;;;;;;4963186;28;20035;-74
2023/12/12 10:05:04;;;;;;;81.38;32.20;;;5.50;99.90;;;;;;4996612;28;20066;-74
2023/12/12 10:07:31;;;;;;;79.78;29.65;;;5.60;99.90;;;;;;4995247;28;20112;-74
2023/12/12 10:09:56;;;;;;;86.65;32.53;;;5.70;99.90;;;;;;4996209;28;20073;-74
2023/12/12 10:12:22;;;;;;;75.93;28.83;;;5.70;99.90;;;;;;4996378;28;20073;-75
2023/12/12 10:14:48;;;;;;;76.18;30.48;;;5.80;99.90;;;;;;4996413;28;20462;-74
2023/12/12 10:17:15;;;;;;;78.72;30.02;;;5.90;99.90;;;;;;4996390;28;20074;-74
2023/12/12 10:19:41;;;;;;;81.90;31.05;;;5.90;99.90;;;;;;4994847;28;20096;-75
2023/12/12 10:22:10;;;;;;;75.88;29.83;;;5.90;99.90;;;;;;4995031;28;20386;-75
2023/12/12 10:24:37;;;;;;;73.78;29.35;;;6.00;99.90;;;;;;4994728;28;20114;-74
2023/12/12 10:27:04;;;;;;;83.68;30.35;;;6.10;99.90;;;;;;4996122;28;20047;-75
2023/12/12 10:29:31;;;;;;;70.88;27.42;;;6.10;99.90;;;;;;4994587;28;20042;-75
2023/12/12 10:32:02;;;;;;;73.97;28.60;;;6.20;99.90;;;;;;4994802;28;20375;-75
2023/12/12 10:34:28;;;;;;;74.47;29.27;;;6.30;99.90;;;;;;4994560;28;20086;-76
2023/12/12 10:36:54;;;;;;;69.97;29.10;;;6.30;99.90;;;;;;4995255;28;20136;-75
2023/12/12 10:39:20;;;;;;;75.68;29.55;;;6.40;99.90;;;;;;4995003;28;20142;-74
2023/12/12 10:41:54;;;;;;;73.22;27.27;;;6.40;99.90;;;;;;4994439;28;20125;-75
2023/12/12 10:44:24;;;;;;;68.22;28.67;;;6.40;99.90;;;;;;4995853;28;20185;-73
2023/12/12 10:46:52;;;;;;;77.60;30.27;;;6.50;99.90;;;;;;4994288;28;20482;-73
2023/12/12 10:49:21;;;;;;;71.95;28.77;;;6.50;99.90;;;;;;4995724;28;20038;-74
2023/12/12 10:51:47;;;;;;;74.95;30.15;;;6.60;99.90;;;;;;4994101;28;20047;-75
2023/12/12 10:54:16;;;;;;;77.30;29.52;;;6.70;99.90;;;;;;4994158;28;20046;-80
2023/12/12 10:56:46;;;;;;;83.32;29.33;;;6.70;99.90;;;;;;4994104;28;20073;-75
2023/12/12 10:59:16;;;;;;;76.63;30.80;;;6.80;99.90;;;;;;4994115;28;20154;-74
2023/12/12 11:01:47;;;;;;;73.40;29.08;;;6.90;99.90;;;;;;4993853;28;20049;-74
2023/12/12 11:04:14;;;;;;;77.45;29.60;;;6.90;99.90;;;;;;4995192;28;20038;-76
2023/12/12 11:06:42;;;;;;;68.45;28.83;;;6.90;99.90;;;;;;4977624;28;20508;-76
2023/12/12 11:09:08;;;;;;;76.05;28.30;;;7.00;99.90;;;;;;4995219;28;20116;-74
2023/12/12 11:11:35;;;;;;;70.03;28.60;;;6.90;99.90;;;;;;4995248;28;20447;-75
2023/12/12 11:14:02;;;;;;;66.55;28.25;;;6.90;99.90;;;;;;4993751;28;20093;-75
2023/12/12 11:16:28;;;;;;;64.25;27.17;;;6.90;99.90;;;;;;4994018;28;20116;-75
2023/12/12 11:18:55;;;;;;;65.63;27.88;;;7.00;99.90;;;;;;4993690;28;20081;-76
2023/12/12 11:21:43;;;;;;;62.63;26.23;;;6.90;99.90;;;;;;4994758;28;20074;-76
2023/12/12 11:24:08;;;;;;;65.95;26.65;;;7.00;99.90;;;;;;4993584;28;20042;-75
2023/12/12 11:26:36;;;;;;;68.80;26.98;;;6.90;99.90;;;;;;4993484;28;20089;-75
2023/12/12 11:29:05;;;;;;;60.83;25.73;;;6.90;99.90;;;;;;4994694;28;20038;-76
2023/12/12 11:31:35;;;;;;;70.40;28.25;;;6.90;99.90;;;;;;4993757;28;20042;-74
2023/12/12 11:34:05;;;;;;;65.32;26.38;;;6.90;99.90;;;;;;4993405;28;20034;-75
2023/12/12 11:36:51;;;;;;;72.63;27.98;;;6.90;99.90;;;;;;4993682;28;20077;-74
2023/12/12 11:39:23;;;;;;;75.25;28.60;;;7.00;99.90;;;;;;4994857;28;20082;-76
2023/12/12 11:41:53;;;;;;;70.30;28.42;;;7.00;99.90;;;;;;4993261;28;20477;-77
2023/12/12 11:44:21;;;;;;;74.43;29.20;;;7.00;99.90;;;;;;4993226;28;20045;-75
2023/12/12 11:46:47;;;;;;;72.57;28.48;;;7.00;99.90;;;;;;4993208;28;20050;-76
2023/12/12 11:49:19;;;;;;;76.00;27.95;;;7.00;99.90;;;;;;4994700;28;20128;-75
2023/12/12 11:51:46;;;;;;;73.40;28.35;;;7.00;99.90;;;;;;5010963;28;20045;-76
2023/12/12 11:54:23;;;;;;;74.32;28.17;;;7.00;99.90;;;;;;5012756;28;20088;-76
2023/12/12 11:56:59;;;;;;;73.95;28.27;;;7.00;99.90;;;;;;5012321;28;20052;-76
2023/12/12 11:59:26;;;;;;;71.07;26.27;;;7.00;99.90;;;;;;5012729;28;20053;-75
2023/12/12 12:01:52;;;;;;;68.57;27.08;;;7.00;99.90;;;;;;5013782;28;20034;-76
2023/12/12 12:04:19;;;;;;;73.40;26.75;;;7.00;99.90;;;;;;5012588;28;20049;-75
2023/12/12 12:06:45;;;;;;;66.55;24.98;;;7.10;99.90;;;;;;5015056;28;20042;-74
2023/12/12 12:09:12;;;;;;;66.88;24.60;;;7.10;99.90;;;;;;5017866;28;20038;-73
2023/12/12 12:11:51;;;;;;;63.80;25.48;;;7.10;99.90;;;;;;5013602;28;20080;-76
2023/12/12 12:14:24;;;;;;;63.35;23.55;;;7.10;99.90;;;;;;5012979;28;20122;-74
2023/12/12 12:16:53;;;;;;;60.30;24.08;;;7.20;99.90;;;;;;5013100;28;20116;-75
2023/12/12 12:19:30;;;;;;;67.13;23.83;;;7.20;99.90;;;;;;5012667;28;20486;-76
2023/12/12 12:22:01;;;;;;;68.65;23.83;;;7.30;99.90;;;;;;5012308;28;20125;-76
2023/12/12 12:24:27;;;;;;;61.17;23.25;;;7.30;99.90;;;;;;5014016;28;20096;-76
2023/12/12 12:26:52;;;;;;;68.22;24.40;;;7.30;99.90;;;;;;5013529;28;20034;-75
2023/12/12 12:29:18;;;;;;;73.38;25.80;;;7.30;99.90;;;;;;5012353;28;20044;-76
2023/12/12 12:31:44;;;;;;;65.40;24.05;;;7.30;99.90;;;;;;5012221;28;20069;-75
2023/12/12 12:34:20;;;;;;;67.63;23.90;;;7.30;99.90;;;;;;5013434;28;20042;-76
2023/12/12 12:36:50;;;;;;;63.33;24.85;;;7.30;99.90;;;;;;5012530;28;20041;-76
2023/12/12 12:39:16;;;;;;;84.80;25.35;;;7.30;99.90;;;;;;5012555;28;20088;-76
2023/12/12 12:41:44;;;;;;;64.68;23.67;;;7.40;99.90;;;;;;4995837;28;20084;-75
2023/12/12 12:44:13;;;;;;;70.32;26.00;;;7.40;99.90;;;;;;5012446;28;20107;-76
2023/12/12 12:46:51;;;;;;;70.90;24.25;;;7.40;99.90;;;;;;5012095;28;20048;-76
2023/12/12 12:49:18;;;;;;;73.60;24.38;;;7.40;99.90;;;;;;5012171;28;20037;-76
2023/12/12 12:51:47;;;;;;;69.07;24.02;;;7.40;99.90;;;;;;5013244;28;20056;-76
2023/12/12 12:54:14;;;;;;;78.38;24.20;;;7.40;99.90;;;;;;5012106;28;20042;-76
2023/12/12 12:56:42;;;;;;;79.22;26.08;;;7.40;99.90;;;;;;5012124;28;20089;-76
2023/12/12 12:59:07;;;;;;;73.75;25.88;;;7.50;99.90;;;;;;5013304;28;20454;-75
2023/12/12 13:01:40;;;;;;;71.85;24.15;;;7.40;99.90;;;;;;5012903;28;20065;-76
2023/12/12 13:04:05;;;;;;;81.05;24.35;;;7.50;99.90;;;;;;5011981;28;20044;-77
2023/12/12 13:06:31;;;;;;;88.80;25.70;;;7.50;99.90;;;;;;5012217;28;20049;-79
2023/12/12 13:08:57;;;;;;;75.20;25.40;;;7.50;99.90;;;;;;5016200;28;20103;-77
2023/12/12 13:11:22;;;;;;;75.15;25.25;;;7.60;99.90;;;;;;5015875;28;20037;-76
2023/12/12 13:13:50;;;;;;;87.97;26.52;;;7.60;99.90;;;;;;5015702;28;20038;-74
2023/12/12 13:16:18;;;;;;;77.47;26.33;;;7.60;99.90;;;;;;5015819;28;20042;-75
2023/12/12 13:18:44;;;;;;;78.50;24.80;;;7.60;99.90;;;;;;5015538;28;20089;-75
2023/12/12 13:21:10;;;;;;;88.82;26.88;;;7.60;99.90;;;;;;5015776;28;20135;-75
2023/12/12 13:23:35;;;;;;;88.00;26.88;;;7.60;99.90;;;;;;5017282;28;20030;-76
2023/12/12 13:26:01;;;;;;;87.95;27.90;;;7.70;99.90;;;;;;5015588;28;20038;-75
2023/12/12 13:28:27;;;;;;;82.68;27.88;;;7.60;99.90;;;;;;5016945;28;20543;-75
2023/12/12 13:30:52;;;;;;;91.35;29.77;;;7.70;99.90;;;;;;5015323;28;20386;-74
2023/12/12 13:33:18;;;;;;;104.57;29.33;;;7.60;99.90;;;;;;5017121;28;20045;-75
2023/12/12 13:35:44;;;;;;;98.18;30.52;;;7.60;99.90;;;;;;5016786;28;20045;-75
2023/12/12 13:38:09;;;;;;;95.38;28.90;;;7.70;99.90;;;;;;5015237;28;20056;-74
2023/12/12 13:40:35;;;;;;;94.43;30.80;;;7.70;99.90;;;;;;5015365;28;20472;-75
2023/12/12 13:43:01;;;;;;;85.15;27.85;;;7.60;99.90;;;;;;5015669;28;20041;-75
2023/12/12 13:45:26;;;;;;;87.63;28.60;;;7.60;99.90;;;;;;5014992;28;20046;-75
2023/12/12 13:47:52;;;;;;;95.97;28.75;;;7.70;99.90;;;;;;5016433;28;20159;-75
2023/12/12 13:50:18;;;;;;;88.43;28.40;;;7.60;99.90;;;;;;5015105;28;20133;-75
2023/12/12 13:52:45;;;;;;;92.93;28.73;;;7.70;99.90;;;;;;5016388;28;20470;-75
2023/12/12 13:55:10;;;;;;;95.50;30.42;;;7.60;99.90;;;;;;5016712;28;20038;-74
2023/12/12 13:57:36;;;;;;;102.22;29.55;;;7.60;99.90;;;;;;5016070;28;20394;-74
2023/12/12 14:00:03;;;;;;;88.03;28.60;;;7.70;99.90;;;;;;5014812;28;20070;-75
2023/12/12 14:02:29;;;;;;;112.95;32.75;;;7.70;99.90;;;;;;5014618;28;20059;-74
2023/12/12 14:04:55;;;;;;;107.40;31.27;;;7.70;99.90;;;;;;5016304;28;20041;-75
2023/12/12 14:07:22;;;;;;;111.05;31.40;;;7.60;99.90;;;;;;5014585;28;20394;-75
2023/12/12 14:09:47;;;;;;;99.80;31.00;;;7.70;99.90;;;;;;5016044;28;20041;-74
2023/12/12 14:12:13;;;;;;;116.28;32.60;;;7.60;99.90;;;;;;5015765;28;20065;-75
2023/12/12 14:14:39;;;;;;;102.28;30.65;;;7.60;99.90;;;;;;5016292;28;20117;-74
2023/12/12 14:17:04;;;;;;;107.13;32.55;;;7.60;99.90;;;;;;5015994;28;20600;-76
2023/12/12 14:19:30;;;;;;;111.30;31.63;;;7.60;99.90;;;;;;5014351;28;20085;-75
2023/12/12 14:21:56;;;;;;;105.43;30.83;;;7.60;99.90;;;;;;5014376;28;20045;-75
2023/12/12 14:24:21;;;;;;;109.22;32.17;;;7.60;99.90;;;;;;5015574;28;20371;-76
2023/12/12 14:26:47;;;;;;;100.40;30.85;;;7.50;99.90;;;;;;5014285;28;20049;-75
2023/12/12 14:29:13;;;;;;;108.05;32.90;;;7.60;99.90;;;;;;5014287;28;20122;-74
2023/12/12 14:31:38;;;;;;;101.65;30.00;;;7.50;99.90;;;;;;5014449;28;20041;-74
2023/12/12 14:34:04;;;;;;;101.72;30.58;;;7.50;99.90;;;;;;5014220;28;20088;-75
2023/12/12 14:36:31;;;;;;;94.10;31.67;;;7.50;99.90;;;;;;5014134;28;20050;-75
2023/12/12 14:38:57;;;;;;;119.10;32.88;;;7.50;99.90;;;;;;5014055;28;20050;-74
2023/12/12 14:41:23;;;;;;;104.47;32.33;;;7.50;99.90;;;;;;5013939;28;20114;-75
2023/12/12 14:43:48;;;;;;;107.65;31.52;;;7.60;99.90;;;;;;5014281;28;20042;-75
2023/12/12 14:46:15;;;;;;;112.03;31.77;;;7.60;99.90;;;;;;5013882;28;20046;-75
2023/12/12 14:48:40;;;;;;;122.15;32.85;;;7.60;99.90;;;;;;5015138;28;20080;-75
2023/12/12 14:51:07;;;;;;;120.68;32.85;;;7.50;99.90;;;;;;5013798;28;20501;-74
2023/12/12 14:53:32;;;;;;;112.00;31.85;;;7.60;99.90;;;;;;5015021;28;20038;-75
2023/12/12 14:55:58;;;;;;;107.22;33.00;;;7.60;99.90;;;;;;5015241;28;20049;-76
2023/12/12 14:58:24;;;;;;;117.80;33.60;;;7.60;99.90;;;;;;5013627;28;20056;-75
2023/12/12 15:00:50;;;;;;;121.25;31.23;;;7.60;99.90;;;;;;5013546;28;20046;-75
2023/12/12 15:03:18;;;;;;;110.60;32.08;;;7.60;99.90;;;;;;5013603;28;20398;-74
2023/12/12 15:05:44;;;;;;;109.15;31.92;;;7.60;99.90;;;;;;5013578;28;20129;-75
2023/12/12 15:08:10;;;;;;;120.10;32.78;;;7.60;99.90;;;;;;5015016;28;20042;-75
2023/12/12 15:10:36;;;;;;;113.68;33.65;;;7.60;99.90;;;;;;5014892;28;20084;-74
2023/12/12 15:13:01;;;;;;;109.25;31.55;;;7.60;99.90;;;;;;5013493;28;20097;-75
2023/12/12 15:15:27;;;;;;;109.53;32.78;;;7.60;99.90;;;;;;5014558;28;20121;-75
2023/12/12 15:17:52;;;;;;;116.68;33.00;;;7.60;99.90;;;;;;5013733;28;20042;-76
2023/12/12 15:20:18;;;;;;;123.20;32.92;;;7.70;99.90;;;;;;5014492;28;20436;-73
2023/12/12 15:22:44;;;;;;;115.82;33.53;;;7.60;99.90;;;;;;5013564;28;20053;-76
2023/12/12 15:25:10;;;;;;;111.22;32.15;;;7.70;99.90;;;;;;4997098;28;20397;-75
2023/12/12 15:27:37;;;;;;;126.32;34.38;;;7.60;99.90;;;;;;5015010;28;20474;-75
2023/12/12 15:30:04;;;;;;;122.35;32.78;;;7.60;99.90;;;;;;5012872;28;20049;-74
2023/12/12 15:32:32;;;;;;;112.15;32.92;;;7.60;99.90;;;;;;5012973;28;20091;-74
2023/12/12 15:34:58;;;;;;;112.00;32.20;;;7.60;99.90;;;;;;5013075;28;20038;-74
2023/12/12 15:37:24;;;;;;;130.02;34.53;;;7.60;99.90;;;;;;5014278;28;20042;-75
2023/12/12 15:39:50;;;;;;;128.73;33.80;;;7.60;99.90;;;;;;5013185;28;20050;-75
2023/12/12 15:42:16;;;;;;;126.97;32.10;;;7.60;99.90;;;;;;5014378;28;20038;-74
2023/12/12 15:44:41;;;;;;;129.73;33.63;;;7.60;99.90;;;;;;5013905;28;20064;-75
2023/12/12 15:47:07;;;;;;;113.80;31.55;;;7.60;99.90;;;;;;5012842;28;20042;-74
2023/12/12 15:49:33;;;;;;;110.10;32.45;;;7.60;99.90;;;;;;5012788;28;20084;-74
2023/12/12 15:51:59;;;;;;;119.93;32.60;;;7.70;99.90;;;;;;5012670;28;20338;-75
2023/12/12 15:54:25;;;;;;;136.80;33.47;;;7.70;99.90;;;;;;5014237;28;20351;-75
2023/12/12 15:56:51;;;;;;;108.95;31.10;;;7.70;99.90;;;;;;5013318;28;20048;-75
2023/12/12 15:59:16;;;;;;;123.75;33.75;;;7.70;99.90;;;;;;5012689;28;20406;-75
2023/12/12 16:01:42;;;;;;;127.60;33.03;;;7.70;99.90;;;;;;5013761;28;20081;-74
2023/12/12 16:04:09;;;;;;;124.47;31.98;;;7.70;99.90;;;;;;5012704;28;20436;-74
2023/12/12 16:06:34;;;;;;;145.85;33.65;;;7.70;99.90;;;;;;4996274;28;20046;-76
2023/12/12 16:09:00;;;;;;;117.50;30.45;;;7.70;99.90;;;;;;5013765;28;20038;-76
2023/12/12 16:11:36;;;;;;;135.20;31.98;;;7.70;99.90;;;;;;5013684;28;20176;-78
2023/12/12 16:14:02;;;;;;;125.35;31.52;;;7.70;99.90;;;;;;4963103;28;20046;-75
2023/12/12 16:16:28;;;;;;;126.97;31.65;;;7.70;99.90;;;;;;5013991;28;20444;-76
2023/12/12 16:18:54;;;;;;;99.85;27.85;;;7.70;99.90;;;;;;4996080;28;20041;-75
2023/12/12 16:21:20;;;;;;;106.53;29.60;;;7.70;99.90;;;;;;5012400;28;20149;-75
2023/12/12 16:23:46;;;;;;;113.68;32.13;;;7.70;99.90;;;;;;4995986;28;20553;-75
2023/12/12 16:26:11;;;;;;;109.07;29.75;;;7.70;99.90;;;;;;5012292;28;20073;-75
2023/12/12 16:28:37;;;;;;;125.32;31.33;;;7.70;99.90;;;;;;5012583;28;20069;-75
2023/12/12 16:31:06;;;;;;;116.10;30.05;;;7.70;99.90;;;;;;5013549;28;20046;-78